sensor_id;sensor_type;location;lat;lon;timestamp;temperature;humidity
9393;DHT22;4736;52.508;13.422;2023-04-06T00:02:16;3.70;62.20
9393;DHT22;4736;52.508;13.422;2023-04-06T00:05:19;3.70;62.10
9393;DHT22;4736;52.508;13.422;2023-04-06T00:08:25;3.70;61.70
9393;DHT22;4736;52.508;13.422;2023-04-06T00:11:28;3.70;62.10
9393;DHT22;4736;52.508;13.422;2023-04-06T00:14:32;3.60;62.10
9393;DHT22;4736;52.508;13.422;2023-04-06T00:17:35;3.60;62.30
9393;DHT22;4736;52.508;13.422;2023-04-06T00:20:38;3.60;62.20
9393;DHT22;4736;52.508;13.422;2023-04-06T00:23:43;3.50;62.30
9393;DHT22;4736;52.508;13.422;2023-04-06T00:26:47;3.60;62.20
9393;DHT22;4736;52.508;13.422;2023-04-06T00:29:50;3.60;62.20
9393;DHT22;4736;52.508;13.422;2023-04-06T00:32:54;3.60;62.30
9393;DHT22;4736;52.508;13.422;2023-04-06T00:35:57;3.60;62.20
9393;DHT22;4736;52.508;13.422;2023-04-06T00:39:02;3.70;62.00
9393;DHT22;4736;52.508;13.422;2023-04-06T00:42:11;3.70;61.80
9393;DHT22;4736;52.508;13.422;2023-04-06T00:45:15;3.70;61.60
9393;DHT22;4736;52.508;13.422;2023-04-06T00:48:18;3.60;61.90
9393;DHT22;4736;52.508;13.422;2023-04-06T00:51:22;3.60;61.90
9393;DHT22;4736;52.508;13.422;2023-04-06T00:54:27;3.60;61.80
9393;DHT22;4736;52.508;13.422;2023-04-06T00:57:31;3.50;62.00
9393;DHT22;4736;52.508;13.422;2023-04-06T01:00:34;3.50;62.20
9393;DHT22;4736;52.508;13.422;2023-04-06T01:03:37;3.50;62.50
9393;DHT22;4736;52.508;13.422;2023-04-06T01:06:41;3.50;62.60
9393;DHT22;4736;52.508;13.422;2023-04-06T01:09:46;3.30;62.80
9393;DHT22;4736;52.508;13.422;2023-04-06T01:12:49;3.30;62.50
9393;DHT22;4736;52.508;13.422;2023-04-06T01:15:53;3.30;62.60
9393;DHT22;4736;52.508;13.422;2023-04-06T01:18:56;3.40;62.80
9393;DHT22;4736;52.508;13.422;2023-04-06T01:21:59;3.30;62.90
9393;DHT22;4736;52.508;13.422;2023-04-06T01:25:05;3.30;63.20
9393;DHT22;4736;52.508;13.422;2023-04-06T01:28:08;3.20;63.20
9393;DHT22;4736;52.508;13.422;2023-04-06T01:31:12;3.30;63.20
9393;DHT22;4736;52.508;13.422;2023-04-06T01:34:15;3.30;63.00
9393;DHT22;4736;52.508;13.422;2023-04-06T01:37:18;3.20;63.00
9393;DHT22;4736;52.508;13.422;2023-04-06T01:40:23;3.10;63.10
9393;DHT22;4736;52.508;13.422;2023-04-06T01:43:27;3.20;63.20
9393;DHT22;4736;52.508;13.422;2023-04-06T01:46:30;3.30;63.00
9393;DHT22;4736;52.508;13.422;2023-04-06T01:49:33;3.20;63.00
9393;DHT22;4736;52.508;13.422;2023-04-06T01:52:37;3.20;63.10
9393;DHT22;4736;52.508;13.422;2023-04-06T01:55:42;3.20;63.20
9393;DHT22;4736;52.508;13.422;2023-04-06T01:58:45;3.20;63.20
9393;DHT22;4736;52.508;13.422;2023-04-06T02:01:48;3.20;63.10
9393;DHT22;4736;52.508;13.422;2023-04-06T02:04:51;3.30;63.00
9393;DHT22;4736;52.508;13.422;2023-04-06T02:07:55;3.30;63.00
9393;DHT22;4736;52.508;13.422;2023-04-06T02:10:59;3.20;63.00
9393;DHT22;4736;52.508;13.422;2023-04-06T02:14:02;3.10;63.00
9393;DHT22;4736;52.508;13.422;2023-04-06T02:17:06;3.10;63.10
9393;DHT22;4736;52.508;13.422;2023-04-06T02:20:10;3.10;63.20
9393;DHT22;4736;52.508;13.422;2023-04-06T02:23:13;3.10;63.00
9393;DHT22;4736;52.508;13.422;2023-04-06T02:26:18;3.10;63.00
9393;DHT22;4736;52.508;13.422;2023-04-06T02:29:24;3.10;63.00
9393;DHT22;4736;52.508;13.422;2023-04-06T02:32:28;3.10;62.90
9393;DHT22;4736;52.508;13.422;2023-04-06T02:35:32;3.10;62.70
9393;DHT22;4736;52.508;13.422;2023-04-06T02:38:35;3.10;62.50
9393;DHT22;4736;52.508;13.422;2023-04-06T02:41:39;3.00;62.70
9393;DHT22;4736;52.508;13.422;2023-04-06T02:44:43;2.90;62.80
9393;DHT22;4736;52.508;13.422;2023-04-06T02:47:46;2.90;62.90
9393;DHT22;4736;52.508;13.422;2023-04-06T02:50:50;2.80;63.20
9393;DHT22;4736;52.508;13.422;2023-04-06T02:53:53;2.80;63.20
9393;DHT22;4736;52.508;13.422;2023-04-06T02:56:58;2.80;63.20
9393;DHT22;4736;52.508;13.422;2023-04-06T03:00:01;2.80;63.20
9393;DHT22;4736;52.508;13.422;2023-04-06T03:03:04;2.80;63.10
9393;DHT22;4736;52.508;13.422;2023-04-06T03:06:09;2.70;63.30
9393;DHT22;4736;52.508;13.422;2023-04-06T03:09:12;2.60;63.50
9393;DHT22;4736;52.508;13.422;2023-04-06T03:12:18;2.50;63.60
9393;DHT22;4736;52.508;13.422;2023-04-06T03:15:21;2.50;63.90
9393;DHT22;4736;52.508;13.422;2023-04-06T03:18:25;2.50;63.90
9393;DHT22;4736;52.508;13.422;2023-04-06T03:21:28;2.40;64.30
9393;DHT22;4736;52.508;13.422;2023-04-06T03:24:31;2.40;64.40
9393;DHT22;4736;52.508;13.422;2023-04-06T03:27:36;2.30;64.70
9393;DHT22;4736;52.508;13.422;2023-04-06T03:30:39;2.30;64.80
9393;DHT22;4736;52.508;13.422;2023-04-06T03:33:43;2.20;65.00
9393;DHT22;4736;52.508;13.422;2023-04-06T03:36:46;2.20;65.20
9393;DHT22;4736;52.508;13.422;2023-04-06T03:40:05;2.10;65.40
9393;DHT22;4736;52.508;13.422;2023-04-06T03:43:09;2.10;65.40
9393;DHT22;4736;52.508;13.422;2023-04-06T03:46:14;2.10;65.50
9393;DHT22;4736;52.508;13.422;2023-04-06T03:49:17;2.00;65.60
9393;DHT22;4736;52.508;13.422;2023-04-06T03:52:20;2.00;65.80
9393;DHT22;4736;52.508;13.422;2023-04-06T03:55:24;1.90;65.80
9393;DHT22;4736;52.508;13.422;2023-04-06T03:58:29;1.90;65.80
9393;DHT22;4736;52.508;13.422;2023-04-06T04:01:32;1.90;66.00
9393;DHT22;4736;52.508;13.422;2023-04-06T04:04:36;1.80;66.00
9393;DHT22;4736;52.508;13.422;2023-04-06T04:07:39;1.80;66.00
9393;DHT22;4736;52.508;13.422;2023-04-06T04:10:42;1.70;66.00
9393;DHT22;4736;52.508;13.422;2023-04-06T04:13:47;1.70;66.10
9393;DHT22;4736;52.508;13.422;2023-04-06T04:16:51;1.70;66.10
9393;DHT22;4736;52.508;13.422;2023-04-06T04:19:54;1.60;66.20
9393;DHT22;4736;52.508;13.422;2023-04-06T04:22:57;1.60;66.30
9393;DHT22;4736;52.508;13.422;2023-04-06T04:26:01;1.60;66.50
9393;DHT22;4736;52.508;13.422;2023-04-06T04:29:06;1.60;66.70
9393;DHT22;4736;52.508;13.422;2023-04-06T04:32:09;1.60;67.10
9393;DHT22;4736;52.508;13.422;2023-04-06T04:35:13;1.60;67.20
9393;DHT22;4736;52.508;13.422;2023-04-06T04:38:17;1.50;67.20
9393;DHT22;4736;52.508;13.422;2023-04-06T04:41:20;1.50;67.20
9393;DHT22;4736;52.508;13.422;2023-04-06T04:44:25;1.50;67.70
9393;DHT22;4736;52.508;13.422;2023-04-06T04:47:28;1.50;67.90
9393;DHT22;4736;52.508;13.422;2023-04-06T04:50:32;1.50;68.10
9393;DHT22;4736;52.508;13.422;2023-04-06T04:53:35;1.60;68.90
9393;DHT22;4736;52.508;13.422;2023-04-06T04:56:38;1.60;69.10
9393;DHT22;4736;52.508;13.422;2023-04-06T04:59:43;1.60;69.20
9393;DHT22;4736;52.508;13.422;2023-04-06T05:02:46;1.50;69.90
9393;DHT22;4736;52.508;13.422;2023-04-06T05:05:49;1.50;70.00
9393;DHT22;4736;52.508;13.422;2023-04-06T05:08:52;1.50;70.00
9393;DHT22;4736;52.508;13.422;2023-04-06T05:11:56;1.60;70.00
9393;DHT22;4736;52.508;13.422;2023-04-06T05:15:00;1.60;70.30
9393;DHT22;4736;52.508;13.422;2023-04-06T05:18:03;1.70;70.10
9393;DHT22;4736;52.508;13.422;2023-04-06T05:21:07;1.70;70.20
9393;DHT22;4736;52.508;13.422;2023-04-06T05:24:12;1.70;70.00
9393;DHT22;4736;52.508;13.422;2023-04-06T05:27:15;1.80;70.00
9393;DHT22;4736;52.508;13.422;2023-04-06T05:30:20;1.80;70.00
9393;DHT22;4736;52.508;13.422;2023-04-06T05:33:24;1.90;69.90
9393;DHT22;4736;52.508;13.422;2023-04-06T05:36:29;1.90;69.90
9393;DHT22;4736;52.508;13.422;2023-04-06T05:39:33;2.00;69.80
9393;DHT22;4736;52.508;13.422;2023-04-06T05:42:37;2.10;69.50
9393;DHT22;4736;52.508;13.422;2023-04-06T05:45:44;2.10;69.30
9393;DHT22;4736;52.508;13.422;2023-04-06T05:48:47;2.10;69.20
9393;DHT22;4736;52.508;13.422;2023-04-06T05:51:50;2.20;69.10
9393;DHT22;4736;52.508;13.422;2023-04-06T05:54:54;2.30;69.10
9393;DHT22;4736;52.508;13.422;2023-04-06T05:57:57;2.40;68.90
9393;DHT22;4736;52.508;13.422;2023-04-06T06:01:02;2.50;68.30
9393;DHT22;4736;52.508;13.422;2023-04-06T06:04:06;2.50;67.60
9393;DHT22;4736;52.508;13.422;2023-04-06T06:07:09;2.70;67.30
9393;DHT22;4736;52.508;13.422;2023-04-06T06:10:13;2.80;67.20
9393;DHT22;4736;52.508;13.422;2023-04-06T06:13:16;2.90;66.80
9393;DHT22;4736;52.508;13.422;2023-04-06T06:16:21;3.20;66.80
9393;DHT22;4736;52.508;13.422;2023-04-06T06:19:24;4.50;64.10
9393;DHT22;4736;52.508;13.422;2023-04-06T06:22:27;5.00;61.50
9393;DHT22;4736;52.508;13.422;2023-04-06T06:25:33;5.00;60.80
9393;DHT22;4736;52.508;13.422;2023-04-06T06:28:36;4.70;61.00
9393;DHT22;4736;52.508;13.422;2023-04-06T06:31:41;4.70;61.60
9393;DHT22;4736;52.508;13.422;2023-04-06T06:34:44;5.20;60.70
9393;DHT22;4736;52.508;13.422;2023-04-06T06:37:47;5.50;59.30
9393;DHT22;4736;52.508;13.422;2023-04-06T06:40:51;5.50;58.80
9393;DHT22;4736;52.508;13.422;2023-04-06T06:43:54;5.40;59.20
9393;DHT22;4736;52.508;13.422;2023-04-06T06:46:59;5.40;59.30
9393;DHT22;4736;52.508;13.422;2023-04-06T06:50:02;5.50;59.30
9393;DHT22;4736;52.508;13.422;2023-04-06T06:53:06;5.60;58.40
9393;DHT22;4736;52.508;13.422;2023-04-06T06:56:10;5.60;58.60
9393;DHT22;4736;52.508;13.422;2023-04-06T06:59:15;6.00;58.80
9393;DHT22;4736;52.508;13.422;2023-04-06T07:02:20;6.90;56.60
9393;DHT22;4736;52.508;13.422;2023-04-06T07:05:23;7.10;55.50
9393;DHT22;4736;52.508;13.422;2023-04-06T07:08:29;7.00;55.50
9393;DHT22;4736;52.508;13.422;2023-04-06T07:11:33;6.90;55.40
9393;DHT22;4736;52.508;13.422;2023-04-06T07:14:36;6.60;55.50
9393;DHT22;4736;52.508;13.422;2023-04-06T07:17:41;6.60;55.70
9393;DHT22;4736;52.508;13.422;2023-04-06T07:20:47;6.60;55.70
9393;DHT22;4736;52.508;13.422;2023-04-06T07:23:50;6.60;55.90
9393;DHT22;4736;52.508;13.422;2023-04-06T07:26:53;6.80;55.20
9393;DHT22;4736;52.508;13.422;2023-04-06T07:29:57;6.80;55.40
9393;DHT22;4736;52.508;13.422;2023-04-06T07:33:02;6.50;55.00
9393;DHT22;4736;52.508;13.422;2023-04-06T07:36:05;6.40;55.40
9393;DHT22;4736;52.508;13.422;2023-04-06T07:39:09;6.60;55.30
9393;DHT22;4736;52.508;13.422;2023-04-06T07:42:12;6.80;54.80
9393;DHT22;4736;52.508;13.422;2023-04-06T07:45:15;6.80;54.10
9393;DHT22;4736;52.508;13.422;2023-04-06T07:48:20;6.80;54.30
9393;DHT22;4736;52.508;13.422;2023-04-06T07:51:23;7.00;54.30
9393;DHT22;4736;52.508;13.422;2023-04-06T07:54:27;6.90;54.40
9393;DHT22;4736;52.508;13.422;2023-04-06T07:57:30;7.00;53.70
9393;DHT22;4736;52.508;13.422;2023-04-06T08:00:33;7.20;52.60
9393;DHT22;4736;52.508;13.422;2023-04-06T08:03:40;7.10;53.00
9393;DHT22;4736;52.508;13.422;2023-04-06T08:06:43;7.30;52.50
9393;DHT22;4736;52.508;13.422;2023-04-06T08:09:47;7.20;52.40
9393;DHT22;4736;52.508;13.422;2023-04-06T08:12:50;7.20;52.20
9393;DHT22;4736;52.508;13.422;2023-04-06T08:15:53;7.50;51.90
9393;DHT22;4736;52.508;13.422;2023-04-06T08:18:58;7.50;51.20
9393;DHT22;4736;52.508;13.422;2023-04-06T08:22:03;7.60;51.20
9393;DHT22;4736;52.508;13.422;2023-04-06T08:25:06;7.70;50.70
9393;DHT22;4736;52.508;13.422;2023-04-06T08:28:09;7.60;51.40
9393;DHT22;4736;52.508;13.422;2023-04-06T08:31:13;7.80;50.70
9393;DHT22;4736;52.508;13.422;2023-04-06T08:34:17;7.90;51.00
9393;DHT22;4736;52.508;13.422;2023-04-06T08:37:21;8.00;49.40
9393;DHT22;4736;52.508;13.422;2023-04-06T08:40:24;8.20;48.90
9393;DHT22;4736;52.508;13.422;2023-04-06T08:43:30;8.00;48.60
9393;DHT22;4736;52.508;13.422;2023-04-06T08:46:33;8.10;49.00
9393;DHT22;4736;52.508;13.422;2023-04-06T08:49:39;8.30;48.30
9393;DHT22;4736;52.508;13.422;2023-04-06T08:52:43;8.30;48.10
9393;DHT22;4736;52.508;13.422;2023-04-06T08:55:46;8.30;48.80
9393;DHT22;4736;52.508;13.422;2023-04-06T08:58:52;8.50;48.10
9393;DHT22;4736;52.508;13.422;2023-04-06T09:01:57;8.50;47.30
9393;DHT22;4736;52.508;13.422;2023-04-06T09:05:02;8.60;47.00
9393;DHT22;4736;52.508;13.422;2023-04-06T09:08:05;8.80;46.20
9393;DHT22;4736;52.508;13.422;2023-04-06T09:11:09;8.90;46.20
9393;DHT22;4736;52.508;13.422;2023-04-06T09:14:12;8.90;45.90
9393;DHT22;4736;52.508;13.422;2023-04-06T09:17:20;9.00;46.50
9393;DHT22;4736;52.508;13.422;2023-04-06T09:20:25;8.70;46.30
9393;DHT22;4736;52.508;13.422;2023-04-06T09:23:30;8.90;45.70
9393;DHT22;4736;52.508;13.422;2023-04-06T09:26:45;9.20;45.50
9393;DHT22;4736;52.508;13.422;2023-04-06T09:29:49;9.20;45.50
9393;DHT22;4736;52.508;13.422;2023-04-06T09:32:55;9.40;45.40
9393;DHT22;4736;52.508;13.422;2023-04-06T09:36:01;9.50;45.60
9393;DHT22;4736;52.508;13.422;2023-04-06T09:39:05;9.60;44.90
9393;DHT22;4736;52.508;13.422;2023-04-06T09:42:08;9.50;45.20
9393;DHT22;4736;52.508;13.422;2023-04-06T09:45:11;9.60;43.70
9393;DHT22;4736;52.508;13.422;2023-04-06T09:48:14;9.60;43.80
9393;DHT22;4736;52.508;13.422;2023-04-06T09:51:20;9.60;43.40
9393;DHT22;4736;52.508;13.422;2023-04-06T09:54:23;9.60;43.70
9393;DHT22;4736;52.508;13.422;2023-04-06T09:57:32;9.80;42.90
9393;DHT22;4736;52.508;13.422;2023-04-06T10:00:43;9.80;42.80
9393;DHT22;4736;52.508;13.422;2023-04-06T10:03:52;9.90;43.60
9393;DHT22;4736;52.508;13.422;2023-04-06T10:06:59;9.80;44.20
9393;DHT22;4736;52.508;13.422;2023-04-06T10:10:03;9.90;44.00
9393;DHT22;4736;52.508;13.422;2023-04-06T10:13:07;10.10;43.20
9393;DHT22;4736;52.508;13.422;2023-04-06T10:16:13;10.00;43.40
9393;DHT22;4736;52.508;13.422;2023-04-06T10:19:21;9.90;42.50
9393;DHT22;4736;52.508;13.422;2023-04-06T10:22:32;10.10;42.80
9393;DHT22;4736;52.508;13.422;2023-04-06T10:25:39;10.50;42.90
9393;DHT22;4736;52.508;13.422;2023-04-06T10:28:43;10.50;41.80
9393;DHT22;4736;52.508;13.422;2023-04-06T10:31:48;10.60;40.40
9393;DHT22;4736;52.508;13.422;2023-04-06T10:34:52;10.70;40.30
9393;DHT22;4736;52.508;13.422;2023-04-06T10:38:04;10.40;39.70
9393;DHT22;4736;52.508;13.422;2023-04-06T10:41:09;10.30;39.70
9393;DHT22;4736;52.508;13.422;2023-04-06T10:44:19;10.50;41.00
9393;DHT22;4736;52.508;13.422;2023-04-06T10:47:23;10.60;41.00
9393;DHT22;4736;52.508;13.422;2023-04-06T10:50:27;10.60;39.80
9393;DHT22;4736;52.508;13.422;2023-04-06T10:53:34;10.60;40.00
9393;DHT22;4736;52.508;13.422;2023-04-06T10:56:37;10.30;40.80
9393;DHT22;4736;52.508;13.422;2023-04-06T10:59:42;10.40;40.70
9393;DHT22;4736;52.508;13.422;2023-04-06T11:02:49;10.30;41.00
9393;DHT22;4736;52.508;13.422;2023-04-06T11:05:52;10.50;40.20
9393;DHT22;4736;52.508;13.422;2023-04-06T11:08:58;10.90;40.20
9393;DHT22;4736;52.508;13.422;2023-04-06T11:12:01;10.50;41.00
9393;DHT22;4736;52.508;13.422;2023-04-06T11:15:05;10.70;41.20
9393;DHT22;4736;52.508;13.422;2023-04-06T11:18:08;10.90;41.10
9393;DHT22;4736;52.508;13.422;2023-04-06T11:21:13;10.90;40.00
9393;DHT22;4736;52.508;13.422;2023-04-06T11:24:19;11.00;39.70
9393;DHT22;4736;52.508;13.422;2023-04-06T11:27:22;11.00;39.30
9393;DHT22;4736;52.508;13.422;2023-04-06T11:30:27;11.10;39.00
9393;DHT22;4736;52.508;13.422;2023-04-06T11:33:35;11.30;40.70
9393;DHT22;4736;52.508;13.422;2023-04-06T11:36:42;11.40;40.10
9393;DHT22;4736;52.508;13.422;2023-04-06T11:39:49;11.20;39.70
9393;DHT22;4736;52.508;13.422;2023-04-06T11:42:53;11.30;39.70
9393;DHT22;4736;52.508;13.422;2023-04-06T11:46:00;11.30;40.30
9393;DHT22;4736;52.508;13.422;2023-04-06T11:49:05;11.70;40.70
9393;DHT22;4736;52.508;13.422;2023-04-06T11:52:15;11.70;39.80
9393;DHT22;4736;52.508;13.422;2023-04-06T11:55:20;11.40;39.60
9393;DHT22;4736;52.508;13.422;2023-04-06T11:58:24;11.50;39.90
9393;DHT22;4736;52.508;13.422;2023-04-06T12:01:29;11.70;39.50
9393;DHT22;4736;52.508;13.422;2023-04-06T12:04:39;11.70;40.10
9393;DHT22;4736;52.508;13.422;2023-04-06T12:07:43;11.80;39.30
9393;DHT22;4736;52.508;13.422;2023-04-06T12:10:47;12.00;39.10
9393;DHT22;4736;52.508;13.422;2023-04-06T12:13:51;11.90;38.90
9393;DHT22;4736;52.508;13.422;2023-04-06T12:16:55;12.00;38.90
9393;DHT22;4736;52.508;13.422;2023-04-06T12:20:00;12.10;39.20
9393;DHT22;4736;52.508;13.422;2023-04-06T12:23:14;12.20;38.20
9393;DHT22;4736;52.508;13.422;2023-04-06T12:26:19;11.90;38.60
9393;DHT22;4736;52.508;13.422;2023-04-06T12:29:23;11.70;38.40
9393;DHT22;4736;52.508;13.422;2023-04-06T12:32:27;11.50;39.10
9393;DHT22;4736;52.508;13.422;2023-04-06T12:35:33;11.50;39.40
9393;DHT22;4736;52.508;13.422;2023-04-06T12:38:37;11.70;39.30
9393;DHT22;4736;52.508;13.422;2023-04-06T12:41:43;11.80;38.80
9393;DHT22;4736;52.508;13.422;2023-04-06T12:44:46;11.60;38.90
9393;DHT22;4736;52.508;13.422;2023-04-06T12:47:50;11.50;39.40
9393;DHT22;4736;52.508;13.422;2023-04-06T12:50:58;11.40;39.00
9393;DHT22;4736;52.508;13.422;2023-04-06T12:54:01;11.40;39.70
9393;DHT22;4736;52.508;13.422;2023-04-06T12:57:06;11.70;39.10
9393;DHT22;4736;52.508;13.422;2023-04-06T13:00:10;11.90;39.70
9393;DHT22;4736;52.508;13.422;2023-04-06T13:03:14;12.30;39.20
9393;DHT22;4736;52.508;13.422;2023-04-06T13:06:17;12.50;39.00
9393;DHT22;4736;52.508;13.422;2023-04-06T13:09:20;12.50;38.60
9393;DHT22;4736;52.508;13.422;2023-04-06T13:12:25;12.70;38.80
9393;DHT22;4736;52.508;13.422;2023-04-06T13:15:28;12.60;39.70
9393;DHT22;4736;52.508;13.422;2023-04-06T13:18:32;12.20;40.00
9393;DHT22;4736;52.508;13.422;2023-04-06T13:21:36;12.10;40.00
9393;DHT22;4736;52.508;13.422;2023-04-06T13:24:39;12.20;40.00
9393;DHT22;4736;52.508;13.422;2023-04-06T13:27:44;12.20;40.40
9393;DHT22;4736;52.508;13.422;2023-04-06T13:30:49;11.90;40.00
9393;DHT22;4736;52.508;13.422;2023-04-06T13:33:52;11.50;40.40
9393;DHT22;4736;52.508;13.422;2023-04-06T13:36:55;11.30;40.70
9393;DHT22;4736;52.508;13.422;2023-04-06T13:39:59;11.30;40.50
9393;DHT22;4736;52.508;13.422;2023-04-06T13:43:03;11.50;41.10
9393;DHT22;4736;52.508;13.422;2023-04-06T13:46:07;11.70;40.50
9393;DHT22;4736;52.508;13.422;2023-04-06T13:49:11;11.70;39.30
9393;DHT22;4736;52.508;13.422;2023-04-06T13:52:14;12.00;39.70
9393;DHT22;4736;52.508;13.422;2023-04-06T13:55:17;12.30;40.10
9393;DHT22;4736;52.508;13.422;2023-04-06T13:58:22;12.40;40.10
9393;DHT22;4736;52.508;13.422;2023-04-06T14:01:25;12.50;40.20
9393;DHT22;4736;52.508;13.422;2023-04-06T14:04:29;12.50;40.30
9393;DHT22;4736;52.508;13.422;2023-04-06T14:07:32;12.50;40.30
9393;DHT22;4736;52.508;13.422;2023-04-06T14:10:37;12.30;40.10
9393;DHT22;4736;52.508;13.422;2023-04-06T14:13:43;12.10;40.20
9393;DHT22;4736;52.508;13.422;2023-04-06T14:16:47;12.20;40.50
9393;DHT22;4736;52.508;13.422;2023-04-06T14:19:50;12.50;40.40
9393;DHT22;4736;52.508;13.422;2023-04-06T14:22:54;12.70;39.60
9393;DHT22;4736;52.508;13.422;2023-04-06T14:26:01;12.60;40.20
9393;DHT22;4736;52.508;13.422;2023-04-06T14:29:07;12.80;39.50
9393;DHT22;4736;52.508;13.422;2023-04-06T14:32:10;12.90;39.80
9393;DHT22;4736;52.508;13.422;2023-04-06T14:35:13;13.00;39.10
9393;DHT22;4736;52.508;13.422;2023-04-06T14:38:16;12.70;39.30
9393;DHT22;4736;52.508;13.422;2023-04-06T14:41:20;12.50;39.80
9393;DHT22;4736;52.508;13.422;2023-04-06T14:44:25;12.30;39.60
9393;DHT22;4736;52.508;13.422;2023-04-06T14:47:28;12.00;39.50
9393;DHT22;4736;52.508;13.422;2023-04-06T14:50:32;11.90;40.00
9393;DHT22;4736;52.508;13.422;2023-04-06T14:53:36;11.50;39.80
9393;DHT22;4736;52.508;13.422;2023-04-06T14:56:39;11.30;40.60
9393;DHT22;4736;52.508;13.422;2023-04-06T14:59:43;11.10;41.30
9393;DHT22;4736;52.508;13.422;2023-04-06T15:02:46;11.20;40.60
9393;DHT22;4736;52.508;13.422;2023-04-06T15:05:49;11.40;40.90
9393;DHT22;4736;52.508;13.422;2023-04-06T15:08:53;11.50;41.00
9393;DHT22;4736;52.508;13.422;2023-04-06T15:11:56;11.70;40.30
9393;DHT22;4736;52.508;13.422;2023-04-06T15:15:04;11.80;40.80
9393;DHT22;4736;52.508;13.422;2023-04-06T15:18:08;11.90;40.20
9393;DHT22;4736;52.508;13.422;2023-04-06T15:21:11;12.10;39.90
9393;DHT22;4736;52.508;13.422;2023-04-06T15:24:14;12.00;40.20
9393;DHT22;4736;52.508;13.422;2023-04-06T15:27:17;11.90;40.20
9393;DHT22;4736;52.508;13.422;2023-04-06T15:30:22;12.00;39.90
9393;DHT22;4736;52.508;13.422;2023-04-06T15:33:25;12.00;40.00
9393;DHT22;4736;52.508;13.422;2023-04-06T15:36:29;12.20;39.80
9393;DHT22;4736;52.508;13.422;2023-04-06T15:39:32;12.30;40.00
9393;DHT22;4736;52.508;13.422;2023-04-06T15:42:35;12.20;39.80
9393;DHT22;4736;52.508;13.422;2023-04-06T15:45:39;12.20;40.00
9393;DHT22;4736;52.508;13.422;2023-04-06T15:48:43;12.10;40.30
9393;DHT22;4736;52.508;13.422;2023-04-06T15:51:46;11.80;40.00
9393;DHT22;4736;52.508;13.422;2023-04-06T15:54:50;11.50;40.60
9393;DHT22;4736;52.508;13.422;2023-04-06T15:57:53;11.40;40.90
9393;DHT22;4736;52.508;13.422;2023-04-06T16:00:57;11.10;40.70
9393;DHT22;4736;52.508;13.422;2023-04-06T16:04:00;11.00;41.00
9393;DHT22;4736;52.508;13.422;2023-04-06T16:07:03;10.90;41.70
9393;DHT22;4736;52.508;13.422;2023-04-06T16:10:08;10.80;42.00
9393;DHT22;4736;52.508;13.422;2023-04-06T16:13:11;10.60;42.20
9393;DHT22;4736;52.508;13.422;2023-04-06T16:16:15;10.50;41.60
9393;DHT22;4736;52.508;13.422;2023-04-06T16:19:18;10.40;42.10
9393;DHT22;4736;52.508;13.422;2023-04-06T16:22:22;10.30;42.20
9393;DHT22;4736;52.508;13.422;2023-04-06T16:25:25;10.20;42.10
9393;DHT22;4736;52.508;13.422;2023-04-06T16:28:28;10.20;42.20
9393;DHT22;4736;52.508;13.422;2023-04-06T16:31:33;10.00;42.00
9393;DHT22;4736;52.508;13.422;2023-04-06T16:34:36;10.00;42.10
9393;DHT22;4736;52.508;13.422;2023-04-06T16:37:39;9.80;42.20
9393;DHT22;4736;52.508;13.422;2023-04-06T16:40:42;9.80;42.30
9393;DHT22;4736;52.508;13.422;2023-04-06T16:43:46;9.70;42.70
9393;DHT22;4736;52.508;13.422;2023-04-06T16:46:51;9.60;42.80
9393;DHT22;4736;52.508;13.422;2023-04-06T16:49:54;9.70;43.00
9393;DHT22;4736;52.508;13.422;2023-04-06T16:53:09;9.60;43.20
9393;DHT22;4736;52.508;13.422;2023-04-06T16:56:12;9.50;43.40
9393;DHT22;4736;52.508;13.422;2023-04-06T16:59:15;9.40;43.60
9393;DHT22;4736;52.508;13.422;2023-04-06T17:02:20;9.40;43.60
9393;DHT22;4736;52.508;13.422;2023-04-06T17:05:23;9.40;43.60
9393;DHT22;4736;52.508;13.422;2023-04-06T17:08:28;9.30;43.90
9393;DHT22;4736;52.508;13.422;2023-04-06T17:11:31;9.20;44.00
9393;DHT22;4736;52.508;13.422;2023-04-06T17:14:46;9.20;43.80
9393;DHT22;4736;52.508;13.422;2023-04-06T17:17:51;9.10;43.90
9393;DHT22;4736;52.508;13.422;2023-04-06T17:20:55;9.00;44.00
9393;DHT22;4736;52.508;13.422;2023-04-06T17:23:58;9.00;43.90
9393;DHT22;4736;52.508;13.422;2023-04-06T17:27:01;8.90;44.20
9393;DHT22;4736;52.508;13.422;2023-04-06T17:30:06;8.80;44.40
9393;DHT22;4736;52.508;13.422;2023-04-06T17:33:14;8.80;44.40
9393;DHT22;4736;52.508;13.422;2023-04-06T17:36:17;8.60;44.60
9393;DHT22;4736;52.508;13.422;2023-04-06T17:39:22;8.60;44.70
9393;DHT22;4736;52.508;13.422;2023-04-06T17:42:25;8.50;44.60
9393;DHT22;4736;52.508;13.422;2023-04-06T17:45:28;8.50;44.50
9393;DHT22;4736;52.508;13.422;2023-04-06T17:48:33;8.50;44.90
9393;DHT22;4736;52.508;13.422;2023-04-06T17:51:36;8.40;44.90
9393;DHT22;4736;52.508;13.422;2023-04-06T17:54:39;8.30;45.00
9393;DHT22;4736;52.508;13.422;2023-04-06T17:57:43;8.20;45.30
9393;DHT22;4736;52.508;13.422;2023-04-06T18:00:47;8.20;45.70
9393;DHT22;4736;52.508;13.422;2023-04-06T18:03:52;8.10;45.50
9393;DHT22;4736;52.508;13.422;2023-04-06T18:06:55;8.10;45.40
9393;DHT22;4736;52.508;13.422;2023-04-06T18:09:58;8.00;45.30
9393;DHT22;4736;52.508;13.422;2023-04-06T18:13:02;8.00;45.70
9393;DHT22;4736;52.508;13.422;2023-04-06T18:16:06;7.80;46.10
9393;DHT22;4736;52.508;13.422;2023-04-06T18:19:10;7.80;46.20
9393;DHT22;4736;52.508;13.422;2023-04-06T18:22:13;7.70;46.50
9393;DHT22;4736;52.508;13.422;2023-04-06T18:25:17;7.60;46.50
9393;DHT22;4736;52.508;13.422;2023-04-06T18:28:20;7.50;46.90
9393;DHT22;4736;52.508;13.422;2023-04-06T18:31:23;7.50;47.00
9393;DHT22;4736;52.508;13.422;2023-04-06T18:34:28;7.50;47.00
9393;DHT22;4736;52.508;13.422;2023-04-06T18:37:31;7.40;47.20
9393;DHT22;4736;52.508;13.422;2023-04-06T18:40:35;7.30;47.50
9393;DHT22;4736;52.508;13.422;2023-04-06T18:43:38;7.30;47.60
9393;DHT22;4736;52.508;13.422;2023-04-06T18:46:42;7.20;47.90
9393;DHT22;4736;52.508;13.422;2023-04-06T18:49:47;7.20;48.30
9393;DHT22;4736;52.508;13.422;2023-04-06T18:52:50;7.00;48.30
9393;DHT22;4736;52.508;13.422;2023-04-06T18:55:55;7.00;48.50
9393;DHT22;4736;52.508;13.422;2023-04-06T18:58:58;7.00;48.40
9393;DHT22;4736;52.508;13.422;2023-04-06T19:02:01;7.00;48.30
9393;DHT22;4736;52.508;13.422;2023-04-06T19:05:06;7.00;48.40
9393;DHT22;4736;52.508;13.422;2023-04-06T19:08:10;6.90;48.60
9393;DHT22;4736;52.508;13.422;2023-04-06T19:11:14;6.90;48.70
9393;DHT22;4736;52.508;13.422;2023-04-06T19:14:17;6.80;48.80
9393;DHT22;4736;52.508;13.422;2023-04-06T19:17:20;6.80;49.00
9393;DHT22;4736;52.508;13.422;2023-04-06T19:20:24;6.70;49.40
9393;DHT22;4736;52.508;13.422;2023-04-06T19:23:28;6.60;49.50
9393;DHT22;4736;52.508;13.422;2023-04-06T19:26:32;6.60;49.40
9393;DHT22;4736;52.508;13.422;2023-04-06T19:29:36;6.60;49.60
9393;DHT22;4736;52.508;13.422;2023-04-06T19:32:39;6.60;49.70
9393;DHT22;4736;52.508;13.422;2023-04-06T19:35:44;6.50;50.00
9393;DHT22;4736;52.508;13.422;2023-04-06T19:38:47;6.50;50.10
9393;DHT22;4736;52.508;13.422;2023-04-06T19:41:50;6.50;50.20
9393;DHT22;4736;52.508;13.422;2023-04-06T19:44:53;6.40;50.60
9393;DHT22;4736;52.508;13.422;2023-04-06T19:47:59;6.30;50.50
9393;DHT22;4736;52.508;13.422;2023-04-06T19:51:03;6.30;50.60
9393;DHT22;4736;52.508;13.422;2023-04-06T19:54:07;6.30;50.80
9393;DHT22;4736;52.508;13.422;2023-04-06T19:57:10;6.30;50.90